sensor_id;sensor_type;location;lat;lon;timestamp;temperature;humidity
6462;DHT22;3264;42.862;25.098;2023-07-22T00:01:22;22.60;99.90
6462;DHT22;3264;42.862;25.098;2023-07-22T00:03:52;22.50;99.90
6462;DHT22;3264;42.862;25.098;2023-07-22T00:06:23;22.50;99.90
6462;DHT22;3264;42.862;25.098;2023-07-22T00:08:50;22.40;99.90
6462;DHT22;3264;42.862;25.098;2023-07-22T00:11:19;22.40;99.90
6462;DHT22;3264;42.862;25.098;2023-07-22T00:13:48;22.40;99.90
6462;DHT22;3264;42.862;25.098;2023-07-22T00:16:18;22.20;99.90
6462;DHT22;3264;42.862;25.098;2023-07-22T00:18:47;22.10;99.90
6462;DHT22;3264;42.862;25.098;2023-07-22T00:21:15;22.30;99.90
6462;DHT22;3264;42.862;25.098;2023-07-22T00:23:43;22.30;99.90
6462;DHT22;3264;42.862;25.098;2023-07-22T00:26:12;22.30;99.90
6462;DHT22;3264;42.862;25.098;2023-07-22T00:28:40;22.30;99.90
6462;DHT22;3264;42.862;25.098;2023-07-22T00:31:10;22.20;99.90
6462;DHT22;3264;42.862;25.098;2023-07-22T00:33:40;22.10;99.90
6462;DHT22;3264;42.862;25.098;2023-07-22T00:36:08;22.00;99.90
6462;DHT22;3264;42.862;25.098;2023-07-22T00:38:36;22.00;99.90
6462;DHT22;3264;42.862;25.098;2023-07-22T00:41:14;21.90;99.90
6462;DHT22;3264;42.862;25.098;2023-07-22T00:43:42;21.90;99.90
6462;DHT22;3264;42.862;25.098;2023-07-22T00:46:10;21.90;99.90
6462;DHT22;3264;42.862;25.098;2023-07-22T00:48:40;22.40;99.90
6462;DHT22;3264;42.862;25.098;2023-07-22T00:51:10;23.30;99.90
6462;DHT22;3264;42.862;25.098;2023-07-22T00:53:39;23.80;99.30
6462;DHT22;3264;42.862;25.098;2023-07-22T00:56:06;24.30;97.50
6462;DHT22;3264;42.862;25.098;2023-07-22T00:58:34;24.30;97.20
6462;DHT22;3264;42.862;25.098;2023-07-22T01:01:03;24.40;96.00
6462;DHT22;3264;42.862;25.098;2023-07-22T01:03:31;24.30;97.70
6462;DHT22;3264;42.862;25.098;2023-07-22T01:06:00;23.90;97.40
6462;DHT22;3264;42.862;25.098;2023-07-22T01:08:30;23.80;98.00
6462;DHT22;3264;42.862;25.098;2023-07-22T01:10:58;23.60;98.40
6462;DHT22;3264;42.862;25.098;2023-07-22T01:13:27;23.40;99.90
6462;DHT22;3264;42.862;25.098;2023-07-22T01:15:55;23.20;99.90
6462;DHT22;3264;42.862;25.098;2023-07-22T01:18:23;23.20;99.90
6462;DHT22;3264;42.862;25.098;2023-07-22T01:20:52;23.20;99.90
6462;DHT22;3264;42.862;25.098;2023-07-22T01:23:21;23.00;99.90
6462;DHT22;3264;42.862;25.098;2023-07-22T01:25:49;22.90;99.90
6462;DHT22;3264;42.862;25.098;2023-07-22T01:28:17;22.80;99.90
6462;DHT22;3264;42.862;25.098;2023-07-22T01:30:45;22.70;99.90
6462;DHT22;3264;42.862;25.098;2023-07-22T01:33:13;22.70;99.90
6462;DHT22;3264;42.862;25.098;2023-07-22T01:35:41;22.80;99.90
6462;DHT22;3264;42.862;25.098;2023-07-22T01:38:09;22.80;99.90
6462;DHT22;3264;42.862;25.098;2023-07-22T01:40:39;22.60;99.90
6462;DHT22;3264;42.862;25.098;2023-07-22T01:43:07;22.40;99.90
6462;DHT22;3264;42.862;25.098;2023-07-22T01:45:38;22.30;99.90
6462;DHT22;3264;42.862;25.098;2023-07-22T01:48:06;22.30;99.90
6462;DHT22;3264;42.862;25.098;2023-07-22T01:50:34;22.10;99.90
6462;DHT22;3264;42.862;25.098;2023-07-22T01:53:03;22.00;99.90
6462;DHT22;3264;42.862;25.098;2023-07-22T01:55:32;21.90;99.90
6462;DHT22;3264;42.862;25.098;2023-07-22T01:58:13;21.80;99.90
6462;DHT22;3264;42.862;25.098;2023-07-22T02:00:41;21.60;99.90
6462;DHT22;3264;42.862;25.098;2023-07-22T02:03:09;21.50;99.90
6462;DHT22;3264;42.862;25.098;2023-07-22T02:05:38;21.50;99.90
6462;DHT22;3264;42.862;25.098;2023-07-22T02:08:09;21.40;99.90
6462;DHT22;3264;42.862;25.098;2023-07-22T02:10:37;21.30;99.90
6462;DHT22;3264;42.862;25.098;2023-07-22T02:13:13;21.20;99.90
6462;DHT22;3264;42.862;25.098;2023-07-22T02:15:41;21.10;99.90
6462;DHT22;3264;42.862;25.098;2023-07-22T02:18:13;21.00;99.90
6462;DHT22;3264;42.862;25.098;2023-07-22T02:20:43;21.00;99.90
6462;DHT22;3264;42.862;25.098;2023-07-22T02:23:11;21.00;99.90
6462;DHT22;3264;42.862;25.098;2023-07-22T02:25:39;21.00;99.90
6462;DHT22;3264;42.862;25.098;2023-07-22T02:28:07;20.90;99.90
6462;DHT22;3264;42.862;25.098;2023-07-22T02:30:37;20.90;99.90
6462;DHT22;3264;42.862;25.098;2023-07-22T02:33:05;20.90;99.90
6462;DHT22;3264;42.862;25.098;2023-07-22T02:35:36;20.80;99.90
6462;DHT22;3264;42.862;25.098;2023-07-22T02:38:03;20.70;99.90
6462;DHT22;3264;42.862;25.098;2023-07-22T02:40:34;20.60;99.90
6462;DHT22;3264;42.862;25.098;2023-07-22T02:43:03;20.50;99.90
6462;DHT22;3264;42.862;25.098;2023-07-22T02:45:31;20.50;99.90
6462;DHT22;3264;42.862;25.098;2023-07-22T02:48:00;20.50;99.90
6462;DHT22;3264;42.862;25.098;2023-07-22T02:50:29;20.50;99.90
6462;DHT22;3264;42.862;25.098;2023-07-22T02:52:57;20.40;99.90
6462;DHT22;3264;42.862;25.098;2023-07-22T02:55:26;20.30;99.90
6462;DHT22;3264;42.862;25.098;2023-07-22T02:57:54;20.20;99.90
6462;DHT22;3264;42.862;25.098;2023-07-22T03:00:23;20.30;99.90
6462;DHT22;3264;42.862;25.098;2023-07-22T03:02:52;20.30;99.90
6462;DHT22;3264;42.862;25.098;2023-07-22T03:05:22;20.10;99.90
6462;DHT22;3264;42.862;25.098;2023-07-22T03:07:51;20.00;99.90
6462;DHT22;3264;42.862;25.098;2023-07-22T03:10:19;20.00;99.90
6462;DHT22;3264;42.862;25.098;2023-07-22T03:12:52;20.10;99.90
6462;DHT22;3264;42.862;25.098;2023-07-22T03:15:21;20.10;99.90
6462;DHT22;3264;42.862;25.098;2023-07-22T03:17:49;20.20;99.90
6462;DHT22;3264;42.862;25.098;2023-07-22T03:20:17;20.00;99.90
6462;DHT22;3264;42.862;25.098;2023-07-22T03:22:46;20.00;99.90
6462;DHT22;3264;42.862;25.098;2023-07-22T03:25:15;20.00;99.90
6462;DHT22;3264;42.862;25.098;2023-07-22T03:27:45;19.90;99.90
6462;DHT22;3264;42.862;25.098;2023-07-22T03:30:15;19.90;99.90
6462;DHT22;3264;42.862;25.098;2023-07-22T03:32:44;19.90;99.90
6462;DHT22;3264;42.862;25.098;2023-07-22T03:35:13;19.90;99.90
6462;DHT22;3264;42.862;25.098;2023-07-22T03:37:42;20.00;99.90
6462;DHT22;3264;42.862;25.098;2023-07-22T03:40:11;20.10;99.90
6462;DHT22;3264;42.862;25.098;2023-07-22T03:42:43;20.10;99.90
6462;DHT22;3264;42.862;25.098;2023-07-22T03:45:12;20.10;99.90
6462;DHT22;3264;42.862;25.098;2023-07-22T03:47:39;20.20;99.90
6462;DHT22;3264;42.862;25.098;2023-07-22T03:50:08;20.20;99.90
6462;DHT22;3264;42.862;25.098;2023-07-22T03:52:36;20.10;99.90
6462;DHT22;3264;42.862;25.098;2023-07-22T03:55:13;20.10;99.90
6462;DHT22;3264;42.862;25.098;2023-07-22T03:57:41;20.10;99.90
6462;DHT22;3264;42.862;25.098;2023-07-22T04:00:10;20.10;99.90
6462;DHT22;3264;42.862;25.098;2023-07-22T04:02:39;20.10;99.90
6462;DHT22;3264;42.862;25.098;2023-07-22T04:05:07;20.10;99.90
6462;DHT22;3264;42.862;25.098;2023-07-22T04:07:36;20.10;99.90
6462;DHT22;3264;42.862;25.098;2023-07-22T04:10:04;20.20;99.90
6462;DHT22;3264;42.862;25.098;2023-07-22T04:12:33;20.20;99.90
6462;DHT22;3264;42.862;25.098;2023-07-22T04:15:01;20.20;99.90
6462;DHT22;3264;42.862;25.098;2023-07-22T04:17:29;20.10;99.90
6462;DHT22;3264;42.862;25.098;2023-07-22T04:19:58;20.20;99.90
6462;DHT22;3264;42.862;25.098;2023-07-22T04:22:27;20.30;99.90
6462;DHT22;3264;42.862;25.098;2023-07-22T04:24:54;20.40;99.90
6462;DHT22;3264;42.862;25.098;2023-07-22T04:27:23;20.30;99.90
6462;DHT22;3264;42.862;25.098;2023-07-22T04:29:53;20.40;99.90
6462;DHT22;3264;42.862;25.098;2023-07-22T04:32:21;20.50;99.90
6462;DHT22;3264;42.862;25.098;2023-07-22T04:34:49;20.50;99.90
6462;DHT22;3264;42.862;25.098;2023-07-22T04:37:17;20.60;99.90
6462;DHT22;3264;42.862;25.098;2023-07-22T04:39:48;20.60;99.90
6462;DHT22;3264;42.862;25.098;2023-07-22T04:42:17;20.70;99.90
6462;DHT22;3264;42.862;25.098;2023-07-22T04:44:45;20.80;99.90
6462;DHT22;3264;42.862;25.098;2023-07-22T04:47:17;20.80;99.90
6462;DHT22;3264;42.862;25.098;2023-07-22T04:49:45;20.90;99.90
6462;DHT22;3264;42.862;25.098;2023-07-22T04:52:13;21.20;99.90
6462;DHT22;3264;42.862;25.098;2023-07-22T04:54:42;21.20;99.90
6462;DHT22;3264;42.862;25.098;2023-07-22T04:57:13;21.30;99.90
6462;DHT22;3264;42.862;25.098;2023-07-22T04:59:43;21.50;99.90
6462;DHT22;3264;42.862;25.098;2023-07-22T05:02:11;21.60;99.90
6462;DHT22;3264;42.862;25.098;2023-07-22T05:04:40;21.80;99.90
6462;DHT22;3264;42.862;25.098;2023-07-22T05:07:08;21.90;99.90
6462;DHT22;3264;42.862;25.098;2023-07-22T05:09:37;22.00;99.90
6462;DHT22;3264;42.862;25.098;2023-07-22T05:12:05;22.10;99.90
6462;DHT22;3264;42.862;25.098;2023-07-22T05:14:33;22.30;99.90
6462;DHT22;3264;42.862;25.098;2023-07-22T05:17:02;22.50;99.90
6462;DHT22;3264;42.862;25.098;2023-07-22T05:19:37;22.70;99.90
6462;DHT22;3264;42.862;25.098;2023-07-22T05:22:07;22.80;99.90
6462;DHT22;3264;42.862;25.098;2023-07-22T05:24:34;22.70;99.90
6462;DHT22;3264;42.862;25.098;2023-07-22T05:27:09;23.00;99.90
6462;DHT22;3264;42.862;25.098;2023-07-22T05:29:36;23.20;99.90
6462;DHT22;3264;42.862;25.098;2023-07-22T05:32:06;23.30;99.90
6462;DHT22;3264;42.862;25.098;2023-07-22T05:34:34;23.50;99.90
6462;DHT22;3264;42.862;25.098;2023-07-22T05:37:02;23.60;99.90
6462;DHT22;3264;42.862;25.098;2023-07-22T05:39:32;23.80;99.90
6462;DHT22;3264;42.862;25.098;2023-07-22T05:42:01;24.00;99.90
6462;DHT22;3264;42.862;25.098;2023-07-22T05:44:29;24.30;99.90
6462;DHT22;3264;42.862;25.098;2023-07-22T05:46:56;24.60;99.90
6462;DHT22;3264;42.862;25.098;2023-07-22T05:49:24;24.80;99.90
6462;DHT22;3264;42.862;25.098;2023-07-22T05:51:53;25.00;99.90
6462;DHT22;3264;42.862;25.098;2023-07-22T05:54:21;25.00;99.90
6462;DHT22;3264;42.862;25.098;2023-07-22T05:56:51;25.50;99.90
6462;DHT22;3264;42.862;25.098;2023-07-22T05:59:19;25.50;99.90
6462;DHT22;3264;42.862;25.098;2023-07-22T06:01:47;25.80;99.90
6462;DHT22;3264;42.862;25.098;2023-07-22T06:04:18;25.80;99.90
6462;DHT22;3264;42.862;25.098;2023-07-22T06:06:46;26.10;99.90
6462;DHT22;3264;42.862;25.098;2023-07-22T06:09:14;26.40;99.90
6462;DHT22;3264;42.862;25.098;2023-07-22T06:11:44;26.70;99.90
6462;DHT22;3264;42.862;25.098;2023-07-22T06:14:13;26.80;99.90
6462;DHT22;3264;42.862;25.098;2023-07-22T06:16:41;26.80;99.90
6462;DHT22;3264;42.862;25.098;2023-07-22T06:19:08;27.10;99.90
6462;DHT22;3264;42.862;25.098;2023-07-22T06:21:36;27.40;99.90
6462;DHT22;3264;42.862;25.098;2023-07-22T06:24:05;27.80;99.90
6462;DHT22;3264;42.862;25.098;2023-07-22T06:26:33;27.90;99.90
6462;DHT22;3264;42.862;25.098;2023-07-22T06:29:01;27.40;96.10
6462;DHT22;3264;42.862;25.098;2023-07-22T06:31:31;27.60;97.00
6462;DHT22;3264;42.862;25.098;2023-07-22T06:33:59;27.90;96.40
6462;DHT22;3264;42.862;25.098;2023-07-22T06:36:27;28.10;96.90
6462;DHT22;3264;42.862;25.098;2023-07-22T06:38:56;28.00;97.30
6462;DHT22;3264;42.862;25.098;2023-07-22T06:41:23;28.30;97.80
6462;DHT22;3264;42.862;25.098;2023-07-22T06:43:51;28.30;96.20
6462;DHT22;3264;42.862;25.098;2023-07-22T06:46:19;28.40;95.70
6462;DHT22;3264;42.862;25.098;2023-07-22T06:48:49;28.80;96.50
6462;DHT22;3264;42.862;25.098;2023-07-22T06:51:18;28.90;97.80
6462;DHT22;3264;42.862;25.098;2023-07-22T06:53:47;28.90;97.40
6462;DHT22;3264;42.862;25.098;2023-07-22T06:56:15;28.90;94.50
6462;DHT22;3264;42.862;25.098;2023-07-22T06:58:42;29.10;94.20
6462;DHT22;3264;42.862;25.098;2023-07-22T07:01:11;29.30;93.20
6462;DHT22;3264;42.862;25.098;2023-07-22T07:03:39;29.50;93.70
6462;DHT22;3264;42.862;25.098;2023-07-22T07:06:11;29.30;92.00
6462;DHT22;3264;42.862;25.098;2023-07-22T07:08:39;29.70;92.70
6462;DHT22;3264;42.862;25.098;2023-07-22T07:11:11;29.70;93.20
6462;DHT22;3264;42.862;25.098;2023-07-22T07:13:39;29.90;93.00
6462;DHT22;3264;42.862;25.098;2023-07-22T07:16:24;30.20;93.80
6462;DHT22;3264;42.862;25.098;2023-07-22T07:18:52;30.30;92.50
6462;DHT22;3264;42.862;25.098;2023-07-22T07:21:23;30.10;92.30
6462;DHT22;3264;42.862;25.098;2023-07-22T07:23:52;29.80;92.90
6462;DHT22;3264;42.862;25.098;2023-07-22T07:26:21;29.30;93.00
6462;DHT22;3264;42.862;25.098;2023-07-22T07:28:49;29.90;95.90
6462;DHT22;3264;42.862;25.098;2023-07-22T07:31:18;30.10;92.80
6462;DHT22;3264;42.862;25.098;2023-07-22T07:33:46;29.80;92.50
6462;DHT22;3264;42.862;25.098;2023-07-22T07:36:14;29.90;92.90
6462;DHT22;3264;42.862;25.098;2023-07-22T07:38:44;30.20;92.00
6462;DHT22;3264;42.862;25.098;2023-07-22T07:41:12;30.50;90.90
6462;DHT22;3264;42.862;25.098;2023-07-22T07:43:42;30.30;91.30
6462;DHT22;3264;42.862;25.098;2023-07-22T07:46:14;30.10;91.40
6462;DHT22;3264;42.862;25.098;2023-07-22T07:48:44;30.50;94.20
6462;DHT22;3264;42.862;25.098;2023-07-22T07:51:14;30.40;91.40
6462;DHT22;3264;42.862;25.098;2023-07-22T07:53:44;30.70;93.20
6462;DHT22;3264;42.862;25.098;2023-07-22T07:56:13;31.10;93.90
6462;DHT22;3264;42.862;25.098;2023-07-22T07:58:42;31.10;93.90
6462;DHT22;3264;42.862;25.098;2023-07-22T08:01:10;31.60;92.60
6462;DHT22;3264;42.862;25.098;2023-07-22T08:03:39;31.40;88.60
6462;DHT22;3264;42.862;25.098;2023-07-22T08:06:08;31.10;90.10
6462;DHT22;3264;42.862;25.098;2023-07-22T08:08:36;31.50;92.40
6462;DHT22;3264;42.862;25.098;2023-07-22T08:11:08;31.70;91.30
6462;DHT22;3264;42.862;25.098;2023-07-22T08:13:37;31.60;92.30
6462;DHT22;3264;42.862;25.098;2023-07-22T08:16:08;31.40;89.30
6462;DHT22;3264;42.862;25.098;2023-07-22T08:18:37;31.60;89.40
6462;DHT22;3264;42.862;25.098;2023-07-22T08:21:06;32.00;90.00
6462;DHT22;3264;42.862;25.098;2023-07-22T08:23:36;31.80;87.10
6462;DHT22;3264;42.862;25.098;2023-07-22T08:26:04;32.20;88.30
6462;DHT22;3264;42.862;25.098;2023-07-22T08:28:35;32.20;90.20
6462;DHT22;3264;42.862;25.098;2023-07-22T08:31:03;32.20;87.90
6462;DHT22;3264;42.862;25.098;2023-07-22T08:33:31;32.40;90.80
6462;DHT22;3264;42.862;25.098;2023-07-22T08:35:59;31.80;87.50
6462;DHT22;3264;42.862;25.098;2023-07-22T08:38:29;31.70;89.70
6462;DHT22;3264;42.862;25.098;2023-07-22T08:40:58;31.90;86.40
6462;DHT22;3264;42.862;25.098;2023-07-22T08:43:28;32.30;85.30
6462;DHT22;3264;42.862;25.098;2023-07-22T08:46:03;32.80;89.80
6462;DHT22;3264;42.862;25.098;2023-07-22T08:48:34;32.60;82.20
6462;DHT22;3264;42.862;25.098;2023-07-22T08:51:09;32.20;89.10
6462;DHT22;3264;42.862;25.098;2023-07-22T08:53:38;32.20;90.80
6462;DHT22;3264;42.862;25.098;2023-07-22T08:56:07;32.60;85.10
6462;DHT22;3264;42.862;25.098;2023-07-22T08:58:36;32.70;82.70
6462;DHT22;3264;42.862;25.098;2023-07-22T09:01:09;32.40;85.40
6462;DHT22;3264;42.862;25.098;2023-07-22T09:03:38;32.50;82.60
6462;DHT22;3264;42.862;25.098;2023-07-22T09:06:07;32.40;87.30
6462;DHT22;3264;42.862;25.098;2023-07-22T09:08:35;32.80;86.10
6462;DHT22;3264;42.862;25.098;2023-07-22T09:11:06;32.30;82.10
6462;DHT22;3264;42.862;25.098;2023-07-22T09:13:35;32.60;85.20
6462;DHT22;3264;42.862;25.098;2023-07-22T09:16:08;32.30;78.30
6462;DHT22;3264;42.862;25.098;2023-07-22T09:18:37;32.60;80.50
6462;DHT22;3264;42.862;25.098;2023-07-22T09:21:04;32.70;78.90
6462;DHT22;3264;42.862;25.098;2023-07-22T09:23:33;32.80;80.80
6462;DHT22;3264;42.862;25.098;2023-07-22T09:26:12;33.20;84.00
6462;DHT22;3264;42.862;25.098;2023-07-22T09:28:53;33.20;79.90
6462;DHT22;3264;42.862;25.098;2023-07-22T09:31:25;33.20;82.80
6462;DHT22;3264;42.862;25.098;2023-07-22T09:33:55;33.50;86.00
6462;DHT22;3264;42.862;25.098;2023-07-22T09:36:51;33.00;78.40
6462;DHT22;3264;42.862;25.098;2023-07-22T09:39:19;32.50;82.20
6462;DHT22;3264;42.862;25.098;2023-07-22T09:41:48;33.10;85.90
6462;DHT22;3264;42.862;25.098;2023-07-22T09:44:16;32.80;80.10
6462;DHT22;3264;42.862;25.098;2023-07-22T09:46:49;32.90;84.50
6462;DHT22;3264;42.862;25.098;2023-07-22T09:49:18;32.50;83.10
6462;DHT22;3264;42.862;25.098;2023-07-22T09:51:47;32.80;83.50
6462;DHT22;3264;42.862;25.098;2023-07-22T09:54:19;32.90;79.60
6462;DHT22;3264;42.862;25.098;2023-07-22T09:56:49;33.30;79.40
6462;DHT22;3264;42.862;25.098;2023-07-22T09:59:18;33.80;79.70
6462;DHT22;3264;42.862;25.098;2023-07-22T10:01:50;34.00;80.10
6462;DHT22;3264;42.862;25.098;2023-07-22T10:04:18;34.00;79.00
6462;DHT22;3264;42.862;25.098;2023-07-22T10:06:49;33.60;82.10
6462;DHT22;3264;42.862;25.098;2023-07-22T10:09:18;34.10;77.80
6462;DHT22;3264;42.862;25.098;2023-07-22T10:11:50;34.20;80.10
6462;DHT22;3264;42.862;25.098;2023-07-22T10:14:19;34.20;81.30
6462;DHT22;3264;42.862;25.098;2023-07-22T10:16:49;34.20;78.80
6462;DHT22;3264;42.862;25.098;2023-07-22T10:19:19;34.10;77.10
6462;DHT22;3264;42.862;25.098;2023-07-22T10:21:48;33.70;75.60
6462;DHT22;3264;42.862;25.098;2023-07-22T10:24:17;33.60;79.20
6462;DHT22;3264;42.862;25.098;2023-07-22T10:26:45;34.00;77.50
6462;DHT22;3264;42.862;25.098;2023-07-22T10:29:18;33.80;81.70
6462;DHT22;3264;42.862;25.098;2023-07-22T10:31:47;33.50;80.80
6462;DHT22;3264;42.862;25.098;2023-07-22T10:34:23;33.60;79.40
6462;DHT22;3264;42.862;25.098;2023-07-22T10:36:51;33.40;82.20
6462;DHT22;3264;42.862;25.098;2023-07-22T10:39:25;33.60;85.00
6462;DHT22;3264;42.862;25.098;2023-07-22T10:42:00;33.40;81.80
6462;DHT22;3264;42.862;25.098;2023-07-22T10:44:31;33.50;82.10
6462;DHT22;3264;42.862;25.098;2023-07-22T10:47:01;33.50;80.80
6462;DHT22;3264;42.862;25.098;2023-07-22T10:49:45;33.60;83.20
6462;DHT22;3264;42.862;25.098;2023-07-22T10:52:13;33.60;81.60
6462;DHT22;3264;42.862;25.098;2023-07-22T10:54:41;33.60;81.40
6462;DHT22;3264;42.862;25.098;2023-07-22T10:57:24;33.30;85.10
6462;DHT22;3264;42.862;25.098;2023-07-22T10:59:55;33.30;79.70
6462;DHT22;3264;42.862;25.098;2023-07-22T11:02:24;33.60;81.90
6462;DHT22;3264;42.862;25.098;2023-07-22T11:04:56;33.80;84.90
6462;DHT22;3264;42.862;25.098;2023-07-22T11:07:32;33.80;82.90
6462;DHT22;3264;42.862;25.098;2023-07-22T11:10:12;34.00;81.60
6462;DHT22;3264;42.862;25.098;2023-07-22T11:12:43;33.80;79.90
6462;DHT22;3264;42.862;25.098;2023-07-22T11:15:15;33.90;80.40
6462;DHT22;3264;42.862;25.098;2023-07-22T11:17:43;34.00;79.80
6462;DHT22;3264;42.862;25.098;2023-07-22T11:20:13;33.50;79.50
6462;DHT22;3264;42.862;25.098;2023-07-22T11:22:41;34.00;87.90
6462;DHT22;3264;42.862;25.098;2023-07-22T11:25:09;34.10;84.10
6462;DHT22;3264;42.862;25.098;2023-07-22T11:27:45;34.20;82.80
6462;DHT22;3264;42.862;25.098;2023-07-22T11:30:13;34.10;79.80
6462;DHT22;3264;42.862;25.098;2023-07-22T11:32:42;34.10;78.40
6462;DHT22;3264;42.862;25.098;2023-07-22T11:35:13;34.40;78.30
6462;DHT22;3264;42.862;25.098;2023-07-22T11:37:42;34.00;73.00
6462;DHT22;3264;42.862;25.098;2023-07-22T11:40:12;34.00;78.40
6462;DHT22;3264;42.862;25.098;2023-07-22T11:42:40;34.20;84.00
6462;DHT22;3264;42.862;25.098;2023-07-22T11:45:12;34.20;79.50
6462;DHT22;3264;42.862;25.098;2023-07-22T11:47:43;34.20;79.20
6462;DHT22;3264;42.862;25.098;2023-07-22T11:50:19;34.20;81.40
6462;DHT22;3264;42.862;25.098;2023-07-22T11:52:59;34.20;82.20
6462;DHT22;3264;42.862;25.098;2023-07-22T11:55:27;34.00;77.20
6462;DHT22;3264;42.862;25.098;2023-07-22T11:57:59;34.00;83.50
6462;DHT22;3264;42.862;25.098;2023-07-22T12:00:29;33.80;80.80
6462;DHT22;3264;42.862;25.098;2023-07-22T12:02:58;34.10;77.30
6462;DHT22;3264;42.862;25.098;2023-07-22T12:05:35;34.10;77.90
6462;DHT22;3264;42.862;25.098;2023-07-22T12:08:06;34.00;79.60
6462;DHT22;3264;42.862;25.098;2023-07-22T12:10:34;34.10;75.60
6462;DHT22;3264;42.862;25.098;2023-07-22T12:13:01;34.30;77.70
6462;DHT22;3264;42.862;25.098;2023-07-22T12:15:30;33.50;79.00
6462;DHT22;3264;42.862;25.098;2023-07-22T12:18:00;33.50;77.30
6462;DHT22;3264;42.862;25.098;2023-07-22T12:20:30;33.00;79.00
6462;DHT22;3264;42.862;25.098;2023-07-22T12:23:00;33.20;78.50
6462;DHT22;3264;42.862;25.098;2023-07-22T12:25:28;33.40;78.50
6462;DHT22;3264;42.862;25.098;2023-07-22T12:27:56;33.90;75.90
6462;DHT22;3264;42.862;25.098;2023-07-22T12:30:26;34.20;83.20
6462;DHT22;3264;42.862;25.098;2023-07-22T12:32:55;34.40;79.50
6462;DHT22;3264;42.862;25.098;2023-07-22T12:35:23;34.50;80.90
6462;DHT22;3264;42.862;25.098;2023-07-22T12:37:52;34.60;81.00
6462;DHT22;3264;42.862;25.098;2023-07-22T12:40:21;34.70;78.70
6462;DHT22;3264;42.862;25.098;2023-07-22T12:42:50;34.50;81.00
6462;DHT22;3264;42.862;25.098;2023-07-22T12:45:18;34.40;77.60
6462;DHT22;3264;42.862;25.098;2023-07-22T12:47:48;34.40;77.00
6462;DHT22;3264;42.862;25.098;2023-07-22T12:50:18;34.30;83.60
6462;DHT22;3264;42.862;25.098;2023-07-22T12:52:46;34.50;80.90
6462;DHT22;3264;42.862;25.098;2023-07-22T12:55:14;34.80;81.40
6462;DHT22;3264;42.862;25.098;2023-07-22T12:57:44;34.50;83.40
6462;DHT22;3264;42.862;25.098;2023-07-22T13:00:12;34.40;84.60
6462;DHT22;3264;42.862;25.098;2023-07-22T13:02:43;34.40;79.70
6462;DHT22;3264;42.862;25.098;2023-07-22T13:05:10;34.30;79.00
6462;DHT22;3264;42.862;25.098;2023-07-22T13:07:39;34.50;78.10
6462;DHT22;3264;42.862;25.098;2023-07-22T13:10:08;34.40;77.30
6462;DHT22;3264;42.862;25.098;2023-07-22T13:12:45;34.00;76.40
6462;DHT22;3264;42.862;25.098;2023-07-22T13:15:13;34.00;81.20
6462;DHT22;3264;42.862;25.098;2023-07-22T13:17:41;33.80;80.80
6462;DHT22;3264;42.862;25.098;2023-07-22T13:20:10;33.80;79.20
6462;DHT22;3264;42.862;25.098;2023-07-22T13:22:41;33.80;81.80
6462;DHT22;3264;42.862;25.098;2023-07-22T13:25:09;33.80;76.20
6462;DHT22;3264;42.862;25.098;2023-07-22T13:27:37;34.00;75.30
6462;DHT22;3264;42.862;25.098;2023-07-22T13:30:10;34.20;74.40
6462;DHT22;3264;42.862;25.098;2023-07-22T13:32:39;34.40;82.00
6462;DHT22;3264;42.862;25.098;2023-07-22T13:35:07;34.30;79.70
6462;DHT22;3264;42.862;25.098;2023-07-22T13:37:36;34.20;83.50
6462;DHT22;3264;42.862;25.098;2023-07-22T13:40:06;34.20;81.80
6462;DHT22;3264;42.862;25.098;2023-07-22T13:42:37;34.50;81.50
6462;DHT22;3264;42.862;25.098;2023-07-22T13:45:11;34.60;77.20
6462;DHT22;3264;42.862;25.098;2023-07-22T13:47:40;34.20;76.90
6462;DHT22;3264;42.862;25.098;2023-07-22T13:50:08;34.00;78.20
6462;DHT22;3264;42.862;25.098;2023-07-22T13:52:37;33.90;84.30
6462;DHT22;3264;42.862;25.098;2023-07-22T13:55:07;33.80;82.00
6462;DHT22;3264;42.862;25.098;2023-07-22T13:57:35;33.80;85.30
6462;DHT22;3264;42.862;25.098;2023-07-22T14:00:03;33.90;76.60
6462;DHT22;3264;42.862;25.098;2023-07-22T14:02:37;34.00;80.50
6462;DHT22;3264;42.862;25.098;2023-07-22T14:05:10;34.00;82.60
6462;DHT22;3264;42.862;25.098;2023-07-22T14:07:38;34.00;83.50
6462;DHT22;3264;42.862;25.098;2023-07-22T14:10:07;33.80;87.40
6462;DHT22;3264;42.862;25.098;2023-07-22T14:12:36;33.90;84.70
6462;DHT22;3264;42.862;25.098;2023-07-22T14:15:06;34.00;80.50
6462;DHT22;3264;42.862;25.098;2023-07-22T14:17:36;33.90;90.30
6462;DHT22;3264;42.862;25.098;2023-07-22T14:20:07;33.60;91.40
6462;DHT22;3264;42.862;25.098;2023-07-22T14:22:37;33.60;90.20
6462;DHT22;3264;42.862;25.098;2023-07-22T14:25:06;33.60;90.90
6462;DHT22;3264;42.862;25.098;2023-07-22T14:27:34;33.60;90.90
6462;DHT22;3264;42.862;25.098;2023-07-22T14:30:02;33.60;91.90
6462;DHT22;3264;42.862;25.098;2023-07-22T14:32:31;33.30;93.20
6462;DHT22;3264;42.862;25.098;2023-07-22T14:35:00;33.10;91.50
6462;DHT22;3264;42.862;25.098;2023-07-22T14:37:29;33.00;93.60
6462;DHT22;3264;42.862;25.098;2023-07-22T14:39:57;33.20;92.50
6462;DHT22;3264;42.862;25.098;2023-07-22T14:42:26;33.20;93.00
6462;DHT22;3264;42.862;25.098;2023-07-22T14:44:54;33.20;93.20
6462;DHT22;3264;42.862;25.098;2023-07-22T14:47:22;33.20;89.40
6462;DHT22;3264;42.862;25.098;2023-07-22T14:49:50;33.10;92.80
6462;DHT22;3264;42.862;25.098;2023-07-22T14:52:20;33.00;93.60
6462;DHT22;3264;42.862;25.098;2023-07-22T14:54:48;33.00;93.50
6462;DHT22;3264;42.862;25.098;2023-07-22T14:57:17;33.00;93.90
6462;DHT22;3264;42.862;25.098;2023-07-22T14:59:46;32.90;94.30
6462;DHT22;3264;42.862;25.098;2023-07-22T15:02:14;32.80;94.40
6462;DHT22;3264;42.862;25.098;2023-07-22T15:04:43;32.70;95.00
6462;DHT22;3264;42.862;25.098;2023-07-22T15:07:10;32.50;95.00
6462;DHT22;3264;42.862;25.098;2023-07-22T15:09:40;32.60;95.70
6462;DHT22;3264;42.862;25.098;2023-07-22T15:12:08;32.50;96.40
6462;DHT22;3264;42.862;25.098;2023-07-22T15:14:36;32.40;96.30
6462;DHT22;3264;42.862;25.098;2023-07-22T15:17:06;32.40;96.10
6462;DHT22;3264;42.862;25.098;2023-07-22T15:19:36;32.20;96.60
6462;DHT22;3264;42.862;25.098;2023-07-22T15:22:04;32.30;96.20
6462;DHT22;3264;42.862;25.098;2023-07-22T15:24:36;32.10;97.00
6462;DHT22;3264;42.862;25.098;2023-07-22T15:27:06;32.00;97.10
6462;DHT22;3264;42.862;25.098;2023-07-22T15:29:35;31.90;96.90
6462;DHT22;3264;42.862;25.098;2023-07-22T15:32:04;31.90;96.70
6462;DHT22;3264;42.862;25.098;2023-07-22T15:34:32;31.70;96.90
6462;DHT22;3264;42.862;25.098;2023-07-22T15:37:00;31.60;96.90
6462;DHT22;3264;42.862;25.098;2023-07-22T15:39:28;31.50;97.70
6462;DHT22;3264;42.862;25.098;2023-07-22T15:41:56;31.20;97.40
6462;DHT22;3264;42.862;25.098;2023-07-22T15:44:25;31.20;98.20
6462;DHT22;3264;42.862;25.098;2023-07-22T15:46:53;31.00;98.40
6462;DHT22;3264;42.862;25.098;2023-07-22T15:49:22;31.00;99.10
6462;DHT22;3264;42.862;25.098;2023-07-22T15:51:53;30.90;99.40
6462;DHT22;3264;42.862;25.098;2023-07-22T15:54:21;30.90;98.70
6462;DHT22;3264;42.862;25.098;2023-07-22T15:56:49;30.90;99.10
6462;DHT22;3264;42.862;25.098;2023-07-22T15:59:17;30.70;99.50